Lonoke, Arkansas
Current Conditions -  °F | °C
As of 8:48 PM on Friday 21 Nov 2014 (Local Time) from KLRF Reporting Station
Haze Haze  
Wind Chill: 46°   Ceiling: 6500
Heat Index: 46°   Visibility: 4mi
Dew Point: 46°   Wind: 3mph
Humidity: 100%   Direction: 60°ENE
Pressure: 30.26"   Gusts: NA
Location:  34.78°N, 91.9°W
Report Text: KLRF 220248Z AUTO 06003KT 4SM BR SCT003 OVC065 08/08 A3026 RMK AO2
Loading
Personal Weather Stations






























Interactive Weather Map New forecast layout! Learn more

10-Day Weather Forecast

Advertisements
Track Severe Weather on mobile